Time;durP1;ratioP1;P1;durP2;ratioP2;P2;SDS_P1;SDS_P2;PMS_P1;PMS_P2;Temp;Humidity;BMP_temperature;BMP_pressure;BME280_temperature;BME280_humidity;BME280_pressure;Samples;Min_cycle;Max_cycle;Signal;HPM_P1;HPM_P2
2023/09/11 00:01:00;;;;;;;;;;;26.10;68.20;;;26.25;43.90;98606.78;4944806;28;124410;-81
2023/09/11 00:03:35;;;;;;;;;;;26.10;68.40;;;26.21;44.02;98603.97;4918248;28;123220;-81
2023/09/11 00:06:05;;;;;;;;;;;26.00;68.50;;;26.17;44.46;98606.06;4947055;28;116103;-82
2023/09/11 00:08:32;;;;;;;;;;;26.00;68.70;;;26.14;44.66;98601.25;4928923;28;114493;-82
2023/09/11 00:11:01;;;;;;;;;;;26.00;68.80;;;26.13;44.24;98604.47;4934569;28;123985;-82
2023/09/11 00:13:30;;;;;;;;;;;25.90;68.90;;;26.12;44.23;98605.72;4934108;28;124072;-84
2023/09/11 00:15:56;;;;;;;;;;;25.90;69.00;;;26.11;44.28;98606.94;4946666;28;113639;-81
2023/09/11 00:18:32;;;;;;;;;;;25.90;69.10;;;26.08;44.49;98602.91;4924578;28;113552;-82
2023/09/11 00:20:58;;;;;;;;;;;25.90;69.20;;;26.06;44.81;98593.22;4928766;28;124433;-82
2023/09/11 00:23:29;;;;;;;;;;;25.80;69.30;;;26.04;44.84;98596.50;4943688;28;124742;-82
2023/09/11 00:25:56;;;;;;;;;;;25.80;69.40;;;26.02;44.45;98592.47;4937255;28;115000;-82
2023/09/11 00:28:22;;;;;;;;;;;25.80;69.60;;;25.99;44.43;98594.13;4926821;28;112582;-82
2023/09/11 00:30:48;;;;;;;;;;;25.70;69.50;;;25.96;44.49;98595.78;4934897;28;124134;-82
2023/09/11 00:33:21;;;;;;;;;;;25.70;69.70;;;25.93;44.93;98590.97;4941047;28;123162;-82
2023/09/11 00:35:48;;;;;;;;;;;25.70;69.80;;;25.90;45.00;98585.31;4962321;28;114226;-82
2023/09/11 00:38:20;;;;;;;;;;;25.70;69.90;;;25.88;44.84;98588.59;4944798;28;113053;-82
2023/09/11 00:40:46;;;;;;;;;;;25.60;70.00;;;25.87;44.89;98586.16;4926999;28;123458;-82
2023/09/11 00:43:13;;;;;;;;;;;25.60;70.20;;;25.84;44.81;98587.00;4943637;28;123847;-82
2023/09/11 00:45:50;;;;;;;;;;;25.60;70.30;;;25.81;45.40;98582.97;4928031;28;114532;-82
2023/09/11 00:48:20;;;;;;;;;;;25.60;70.50;;;25.78;44.85;98575.31;4933481;28;114036;-82
2023/09/11 00:50:49;;;;;;;;;;;25.50;70.50;;;25.76;45.07;98577.75;4930385;28;122256;-82
2023/09/11 00:53:18;;;;;;;;;;;25.50;70.60;;;25.73;44.97;98581.44;4920631;28;123705;-82
2023/09/11 00:55:47;;;;;;;;;;;25.50;70.80;;;25.72;45.58;98577.00;4928479;28;114417;-81
2023/09/11 00:58:19;;;;;;;;;;;25.50;70.90;;;25.69;45.39;98569.34;4932234;28;113664;-82
2023/09/11 01:00:46;;;;;;;;;;;25.40;70.90;;;25.65;45.64;98568.56;4917121;28;123448;-82
2023/09/11 01:03:13;;;;;;;;;;;25.40;71.10;;;25.62;45.30;98564.56;4934323;28;123030;-82
2023/09/11 01:05:48;;;;;;;;;;;25.40;71.30;;;25.54;45.96;98563.03;4909285;28;113599;-81
2023/09/11 01:08:22;;;;;;;;;;;25.30;71.40;;;25.46;46.21;98572.81;4932024;28;112848;-81
2023/09/11 01:10:49;;;;;;;;;;;25.30;71.70;;;25.38;46.25;98568.44;4925741;28;123310;-80
2023/09/11 01:13:20;;;;;;;;;;;25.20;71.80;;;25.32;46.28;98568.88;4925074;28;124057;-81
2023/09/11 01:16:29;;;;;;;;;;;25.20;72.00;;;25.25;46.46;98563.28;4946785;28;114438;-81
2023/09/11 01:19:41;;;;;;;;;;;25.10;72.10;;;25.17;46.16;98561.72;4949357;28;114314;-81
2023/09/11 01:22:45;;;;;;;;;;;25.10;72.40;;;25.13;46.57;98555.28;4873643;28;124471;-81
2023/09/11 01:25:29;;;;;;;;;;;25.60;72.90;;;25.13;46.56;98556.09;4872909;28;123237;-81
2023/09/11 01:28:29;;;;;;;;;;;24.90;72.50;;;25.12;46.39;98557.31;4886723;28;114630;-81
2023/09/11 01:30:58;;;;;;;;;;;24.90;72.60;;;25.12;46.21;98554.50;4889601;28;114188;-81
2023/09/11 01:33:24;;;;;;;;;;;24.90;72.60;;;25.11;46.27;98558.53;4859294;28;122766;-81
2023/09/11 01:35:57;;;;;;;;;;;24.90;73.30;;;25.09;46.50;98543.19;4888176;28;123804;-81
2023/09/11 01:38:29;;;;;;;;;;;24.90;72.60;;;25.07;46.43;98545.66;4870866;28;113658;-81
2023/09/11 01:40:59;;;;;;;;;;;24.90;72.60;;;25.05;46.16;98546.06;4884706;28;113118;-81
2023/09/11 01:43:34;;;;;;;;;;;24.80;72.60;;;25.04;46.15;98550.13;4887931;28;124125;-80
2023/09/11 01:46:02;;;;;;;;;;;24.80;72.70;;;25.04;46.15;98547.28;4874813;28;122300;-81
2023/09/11 01:48:31;;;;;;;;;;;24.80;72.70;;;24.99;46.44;98544.91;4890712;28;114888;-81
2023/09/11 01:50:58;;;;;;;;;;;24.70;72.60;;;24.99;46.42;98546.94;4888635;28;114750;-81
2023/09/11 01:53:24;;;;;;;;;;;24.70;72.70;;;24.95;46.48;98546.94;4890708;28;124181;-81
2023/09/11 01:55:57;;;;;;;;;;;24.80;72.90;;;24.92;46.46;98542.91;4869349;28;123968;-81
2023/09/11 01:58:29;;;;;;;;;;;24.70;72.90;;;24.92;46.52;98544.94;4893714;28;114246;-81
2023/09/11 02:00:55;;;;;;;;;;;24.70;73.00;;;24.90;46.52;98547.38;4932714;28;113639;-81
2023/09/11 02:03:24;;;;;;;;;;;24.70;73.20;;;24.88;46.55;98545.00;4940977;28;124139;-81
2023/09/11 02:05:57;;;;;;;;;;;24.70;73.30;;;24.87;46.75;98545.38;4930751;28;123901;-81
2023/09/11 02:08:23;;;;;;;;;;;24.60;73.30;;;24.86;46.93;98547.41;4938150;28;114617;-81
2023/09/11 02:10:49;;;;;;;;;;;24.60;73.40;;;24.86;46.64;98543.78;4944191;28;113637;-81
2023/09/11 02:13:18;;;;;;;;;;;24.60;73.50;;;24.85;46.94;98539.34;4934219;28;124481;-81
2023/09/11 02:15:44;;;;;;;;;;;24.60;73.60;;;24.83;46.83;98536.94;4946938;28;123941;-81
2023/09/11 02:18:10;;;;;;;;;;;24.60;73.70;;;24.83;46.70;98538.97;4947876;28;114436;-81
2023/09/11 02:20:37;;;;;;;;;;;24.60;73.80;;;24.81;46.74;98544.22;4932601;28;112670;-81
2023/09/11 02:23:08;;;;;;;;;;;24.50;73.80;;;24.81;46.53;98542.19;4938047;28;123874;-81
2023/09/11 02:25:35;;;;;;;;;;;24.50;73.90;;;24.79;46.78;98541.00;4930547;28;123897;-81
2023/09/11 02:28:01;;;;;;;;;;;24.50;74.00;;;24.76;46.80;98534.16;4920251;28;114279;-81
2023/09/11 02:30:30;;;;;;;;;;;24.50;74.10;;;24.75;46.56;98537.41;4947781;28;113914;-81
2023/09/11 02:32:56;;;;;;;;;;;24.50;74.20;;;24.75;46.99;98534.59;4947455;28;123643;-81
2023/09/11 02:35:25;;;;;;;;;;;24.30;74.10;;;24.73;47.15;98531.38;4947790;28;124005;-81
2023/09/11 02:37:58;;;;;;;;;;;24.50;74.40;;;24.71;46.84;98539.44;4940360;28;115636;-81
2023/09/11 02:40:24;;;;;;;;;;;24.40;74.40;;;24.68;47.28;98536.22;4926637;28;113996;-81
2023/09/11 02:42:51;;;;;;;;;;;24.40;74.50;;;24.65;47.27;98542.72;4917639;28;124200;-81
2023/09/11 02:45:19;;;;;;;;;;;24.40;74.60;;;24.62;47.46;98548.41;4948540;28;123509;-81
2023/09/11 02:47:47;;;;;;;;;;;24.40;74.60;;;24.58;47.27;98548.44;4950913;28;115001;-81
2023/09/11 02:50:18;;;;;;;;;;;24.30;74.60;;;24.57;47.30;98552.44;4950217;28;113680;-82
2023/09/11 02:52:45;;;;;;;;;;;24.30;74.90;;;24.55;47.09;98549.22;4939869;28;123446;-81
2023/09/11 02:55:11;;;;;;;;;;;24.30;75.00;;;24.52;47.10;98546.44;4943403;28;122867;-81
2023/09/11 02:57:43;;;;;;;;;;;24.20;75.00;;;24.51;47.51;98548.47;4950449;28;114873;-82
2023/09/11 03:00:10;;;;;;;;;;;24.20;75.10;;;24.48;47.46;98546.47;4943331;28;113833;-82
2023/09/11 03:02:36;;;;;;;;;;;24.20;75.30;;;24.46;47.76;98546.06;4945481;28;124496;-81
2023/09/11 03:05:07;;;;;;;;;;;23.00;74.30;;;24.45;47.72;98547.28;4950468;28;123864;-81
2023/09/11 03:07:34;;;;;;;;;;;24.20;75.60;;;24.42;47.58;98548.06;4942752;28;114206;-81
2023/09/11 03:10:02;;;;;;;;;;;24.20;75.60;;;24.40;47.99;98542.84;4940803;28;113836;-81
2023/09/11 03:12:31;;;;;;;;;;;24.10;75.70;;;24.38;48.07;98547.28;4950650;28;124381;-81
2023/09/11 03:15:03;;;;;;;;;;;24.10;75.90;;;24.36;48.29;98541.25;4932766;28;124032;-81
2023/09/11 03:17:31;;;;;;;;;;;24.10;76.10;;;24.34;48.14;98543.66;4950443;28;114514;-82
2023/09/11 03:20:00;;;;;;;;;;;24.00;76.20;;;24.29;48.22;98546.91;4924335;28;112963;-81
2023/09/11 03:22:33;;;;;;;;;;;24.00;76.40;;;24.23;48.26;98541.72;4939487;28;123783;-81
2023/09/11 03:25:02;;;;;;;;;;;24.00;76.60;;;24.21;48.62;98543.34;4935205;28;123314;-81
2023/09/11 03:27:31;;;;;;;;;;;24.00;76.80;;;24.18;48.44;98538.50;4918930;28;115655;-81
2023/09/11 03:29:58;;;;;;;;;;;24.00;77.10;;;24.15;48.92;98542.97;4936122;28;114063;-81
2023/09/11 03:32:26;;;;;;;;;;;23.90;77.20;;;24.11;49.19;98541.38;4935258;28;124076;-81
2023/09/11 03:34:55;;;;;;;;;;;23.90;77.90;;;24.00;49.46;98544.25;4947027;28;124117;-82
2023/09/11 03:37:22;;;;;;;;;;;23.80;78.30;;;23.90;49.92;98542.25;4950232;28;114564;-82
2023/09/11 03:39:48;;;;;;;;;;;23.70;78.90;;;23.80;50.28;98547.53;4949481;28;114035;-82
2023/09/11 03:42:14;;;;;;;;;;;23.60;79.30;;;23.77;50.16;98545.50;4949696;28;124455;-82
2023/09/11 03:44:43;;;;;;;;;;;23.60;79.60;;;23.74;50.69;98545.53;4942925;28;124340;-81
2023/09/11 03:47:09;;;;;;;;;;;23.50;80.10;;;23.68;50.87;98535.84;4929129;28;113538;-81
2023/09/11 03:49:38;;;;;;;;;;;23.50;80.40;;;23.63;50.74;98539.88;4930020;28;113584;-82
2023/09/11 03:52:07;;;;;;;;;;;23.50;80.60;;;23.61;51.18;98545.13;4919378;28;123675;-82
2023/09/11 03:54:37;;;;;;;;;;;23.50;81.20;;;23.60;51.36;98546.34;4943158;28;122989;-82
2023/09/11 03:57:03;;;;;;;;;;;23.40;81.40;;;23.58;51.37;98548.75;4919547;28;115006;-82
2023/09/11 03:59:34;;;;;;;;;;;23.40;81.70;;;23.57;51.57;98542.31;4928581;28;113129;-82
2023/09/11 04:02:00;;;;;;;;;;;23.40;82.00;;;23.58;51.53;98543.13;4946299;28;124026;-82
2023/09/11 04:04:26;;;;;;;;;;;23.40;82.40;;;23.59;51.51;98542.72;4938111;28;123880;-82
2023/09/11 04:06:58;;;;;;;;;;;23.30;82.50;;;23.59;51.79;98539.09;4941923;28;114457;-82
2023/09/11 04:09:30;;;;;;;;;;;23.40;82.90;;;23.57;51.81;98542.31;4930403;28;113361;-82
2023/09/11 04:11:56;;;;;;;;;;;23.40;83.30;;;23.54;52.05;98543.13;4912770;28;123228;-81
2023/09/11 04:14:23;;;;;;;;;;;23.30;83.40;;;23.53;51.90;98540.72;4941309;28;123748;-82
2023/09/11 04:16:49;;;;;;;;;;;23.30;83.60;;;23.54;51.95;98543.13;4943532;28;115205;-81
2023/09/11 04:19:15;;;;;;;;;;;23.30;84.00;;;23.54;52.08;98542.34;4949313;28;114773;-82
2023/09/11 04:21:44;;;;;;;;;;;23.30;84.20;;;23.52;52.11;98534.25;4947487;28;123246;-82
2023/09/11 04:24:12;;;;;;;;;;;23.30;84.30;;;23.48;52.11;98546.75;4942044;28;123947;-82
2023/09/11 04:26:40;;;;;;;;;;;23.20;84.20;;;23.46;52.29;98546.38;4930777;28;114555;-82
2023/09/11 04:29:11;;;;;;;;;;;23.20;84.30;;;23.45;52.07;98550.38;4945934;28;113778;-82
2023/09/11 04:31:38;;;;;;;;;;;23.20;84.50;;;23.43;52.22;98547.16;4948995;28;124192;-81
2023/09/11 04:34:10;;;;;;;;;;;23.20;84.60;;;23.42;51.96;98548.38;4905974;28;123341;-82
2023/09/11 04:36:37;;;;;;;;;;;23.20;84.80;;;23.42;51.91;98545.56;4935932;28;114680;-82
2023/09/11 04:39:08;;;;;;;;;;;23.20;84.90;;;23.44;52.09;98543.16;4951825;28;113231;-82
2023/09/11 04:41:34;;;;;;;;;;;23.10;84.90;;;23.41;51.96;98547.59;4948546;28;124356;-82
2023/09/11 04:44:01;;;;;;;;;;;23.10;85.00;;;23.41;52.08;98541.16;4938374;28;123694;-82
2023/09/11 04:46:32;;;;;;;;;;;23.10;85.10;;;23.41;52.09;98543.97;4928536;28;115088;-82
2023/09/11 04:48:59;;;;;;;;;;;23.10;85.30;;;23.41;52.11;98549.59;4957767;28;113735;-81
2023/09/11 04:51:25;;;;;;;;;;;23.10;85.40;;;23.40;52.00;98537.53;4940986;28;123498;-82
2023/09/11 04:53:55;;;;;;;;;;;23.10;85.50;;;23.40;52.16;98536.69;4932568;28;122187;-82
2023/09/11 04:56:22;;;;;;;;;;;23.10;85.60;;;23.38;52.16;98535.09;4925940;28;112842;-82
2023/09/11 04:58:50;;;;;;;;;;;23.10;85.70;;;23.38;52.11;98537.91;4939943;28;113371;-81
2023/09/11 05:01:19;;;;;;;;;;;23.10;86.40;;;23.37;51.94;98547.59;4927490;28;124001;-81
2023/09/11 05:03:46;;;;;;;;;;;23.00;85.60;;;23.35;51.93;98544.38;4943271;28;124330;-81
2023/09/11 05:06:12;;;;;;;;;;;23.10;85.70;;;23.34;51.85;98539.94;4924837;28;115252;-82
2023/09/11 05:08:47;;;;;;;;;;;23.10;85.80;;;23.34;51.99;98537.09;4943552;28;114698;-83
2023/09/11 05:11:21;;;;;;;;;;;23.00;85.70;;;23.34;52.01;98545.56;4915931;28;124074;-82
2023/09/11 05:13:47;;;;;;;;;;;23.00;85.80;;;23.36;51.89;98543.16;4942813;28;123726;-83
2023/09/11 05:16:13;;;;;;;;;;;23.00;86.00;;;23.38;52.05;98537.91;4930086;28;114582;-84
2023/09/11 05:18:43;;;;;;;;;;;23.00;86.00;;;23.39;51.79;98541.53;4920487;28;114039;-83
2023/09/11 05:21:09;;;;;;;;;;;23.00;86.00;;;23.41;51.91;98538.31;4934696;28;124800;-82
2023/09/11 05:23:38;;;;;;;;;;;23.10;86.10;;;23.43;51.70;98541.53;4930915;28;125630;-81
2023/09/11 05:26:10;;;;;;;;;;;23.10;86.20;;;23.46;51.94;98538.72;4941582;28;114207;-79
2023/09/11 05:28:36;;;;;;;;;;;23.10;86.20;;;23.47;51.75;98542.34;4935465;28;113695;-85
2023/09/11 05:31:04;;;;;;;;;;;23.10;86.40;;;23.48;51.94;98532.66;4927797;28;123817;-79
2023/09/11 05:33:33;;;;;;;;;;;23.10;86.50;;;23.50;52.18;98539.50;4950229;28;123855;-82
2023/09/11 05:36:01;;;;;;;;;;;23.10;86.60;;;23.56;51.81;98545.53;4945754;28;114508;-79
2023/09/11 05:38:33;;;;;;;;;;;23.20;86.80;;;23.57;51.62;98549.97;4942547;28;113246;-79
2023/09/11 05:41:00;;;;;;;;;;;23.20;86.60;;;23.55;51.34;98550.38;4939566;28;124682;-79
2023/09/11 05:43:27;;;;;;;;;;;23.20;86.20;;;23.56;51.47;98556.81;4944797;28;123144;-78
2023/09/11 05:45:58;;;;;;;;;;;23.20;86.20;;;23.57;51.58;98549.97;4933350;28;113978;-78
2023/09/11 05:48:24;;;;;;;;;;;23.20;86.30;;;23.60;51.40;98557.63;4926737;28;113731;-77
2023/09/11 05:50:50;;;;;;;;;;;23.20;86.20;;;23.64;51.37;98572.50;4923452;28;124277;-79
2023/09/11 05:53:20;;;;;;;;;;;23.20;86.10;;;23.70;50.95;98561.66;4955997;28;124445;-78
2023/09/11 05:55:48;;;;;;;;;;;23.30;86.10;;;23.75;50.81;98559.25;4921854;28;115053;-78
2023/09/11 05:58:19;;;;;;;;;;;23.30;85.90;;;23.80;50.79;98564.47;4921212;28;114496;-78
2023/09/11 06:00:46;;;;;;;;;;;23.40;85.90;;;23.86;50.87;98561.19;4931174;28;123160;-80
2023/09/11 06:03:12;;;;;;;;;;;23.40;85.80;;;23.87;50.59;98565.66;4929653;28;123937;-79
2023/09/11 06:05:40;;;;;;;;;;;23.50;85.60;;;23.87;50.49;98569.28;4962140;28;114431;-78
2023/09/11 06:08:09;;;;;;;;;;;23.50;85.40;;;23.92;50.61;98568.84;4918149;28;113932;-76
2023/09/11 06:10:36;;;;;;;;;;;23.50;85.40;;;23.99;50.57;98570.84;4940921;28;124714;-85
2023/09/11 06:13:03;;;;;;;;;;;23.60;85.40;;;24.06;50.26;98559.53;4947618;28;122889;-79
2023/09/11 06:15:36;;;;;;;;;;;23.60;85.40;;;24.12;49.88;98565.56;4926625;28;114591;-79
2023/09/11 06:18:09;;;;;;;;;;;23.60;85.10;;;24.15;49.86;98562.75;4947555;28;114265;-76
2023/09/11 06:20:37;;;;;;;;;;;23.70;84.90;;;24.18;49.64;98569.56;4909640;28;124119;-76
2023/09/11 06:23:03;;;;;;;;;;;23.70;84.70;;;24.23;49.74;98575.59;4919980;28;123927;-78
2023/09/11 06:25:35;;;;;;;;;;;23.70;84.50;;;24.30;49.35;98573.97;4959705;28;113783;-77
2023/09/11 06:28:01;;;;;;;;;;;23.80;84.50;;;24.38;49.61;98572.72;4946942;28;113404;-78
2023/09/11 06:30:28;;;;;;;;;;;23.80;84.40;;;24.45;48.91;98575.53;4921347;28;123279;-78
2023/09/11 06:32:57;;;;;;;;;;;23.90;84.20;;;24.44;49.45;98576.72;4959922;28;123808;-78
2023/09/11 06:35:26;;;;;;;;;;;23.90;84.10;;;24.47;49.17;98581.56;4936705;28;114574;-79
2023/09/11 06:37:58;;;;;;;;;;;24.00;84.10;;;24.54;49.18;98575.06;4948770;28;113053;-77
2023/09/11 06:40:24;;;;;;;;;;;24.00;84.10;;;24.61;48.96;98573.03;4947337;28;124120;-75
2023/09/11 06:42:58;;;;;;;;;;;24.10;84.20;;;24.70;48.83;98578.22;4929037;28;123549;-77
2023/09/11 06:45:24;;;;;;;;;;;24.20;84.10;;;24.77;48.59;98571.69;4932230;28;114829;-77
2023/09/11 06:47:50;;;;;;;;;;;24.20;83.90;;;24.81;48.43;98576.13;4944226;28;115687;-76
2023/09/11 06:50:26;;;;;;;;;;;24.30;83.80;;;24.89;48.78;98586.16;4929051;28;124115;-79
2023/09/11 06:52:59;;;;;;;;;;;24.30;83.80;;;24.98;48.67;98571.53;4909889;28;121943;-81
2023/09/11 06:55:25;;;;;;;;;;;23.40;82.90;;;25.08;48.23;98569.88;4921568;28;114467;-77
2023/09/11 06:58:01;;;;;;;;;;;24.50;83.80;;;25.14;48.08;98563.34;4942184;28;113999;-80
2023/09/11 07:00:28;;;;;;;;;;;24.60;83.70;;;25.20;48.09;98565.75;4929468;28;124204;-78
2023/09/11 07:03:02;;;;;;;;;;;24.60;83.60;;;25.26;48.16;98569.75;4922914;28;124133;-77
2023/09/11 07:05:36;;;;;;;;;;;24.70;83.60;;;25.30;47.95;98564.88;4938445;28;113879;-78
2023/09/11 07:08:03;;;;;;;;;;;24.80;83.50;;;25.39;47.84;98561.53;4927580;28;114520;-76
2023/09/11 07:10:38;;;;;;;;;;;24.80;83.30;;;25.48;48.07;98562.69;4922442;28;124339;-76
2023/09/11 07:13:04;;;;;;;;;;;24.90;83.30;;;25.55;47.87;98562.63;4931307;28;123328;-76
2023/09/11 07:15:33;;;;;;;;;;;25.00;83.20;;;25.65;47.55;98562.91;4937233;28;114363;-76
2023/09/11 07:18:00;;;;;;;;;;;25.00;82.90;;;25.67;47.10;98561.28;4939429;28;113576;-76
2023/09/11 07:20:29;;;;;;;;;;;25.10;82.50;;;25.67;47.26;98561.28;4946550;28;123932;-76
2023/09/11 07:22:55;;;;;;;;;;;25.10;82.30;;;25.70;47.32;98565.28;4931797;28;124153;-77
2023/09/11 07:25:29;;;;;;;;;;;25.10;82.30;;;25.77;46.91;98566.03;4960643;28;114586;-75
2023/09/11 07:27:55;;;;;;;;;;;25.20;82.20;;;25.84;47.22;98559.50;4936769;28;113271;-77
2023/09/11 07:30:21;;;;;;;;;;;25.20;82.00;;;25.89;47.07;98563.91;4933083;28;123371;-77
2023/09/11 07:32:52;;;;;;;;;;;25.30;81.80;;;25.93;46.43;98570.34;4932298;28;124486;-78
2023/09/11 07:35:28;;;;;;;;;;;25.40;81.40;;;25.93;46.79;98561.84;4935300;28;115584;-78
2023/09/11 07:37:57;;;;;;;;;;;25.40;81.50;;;25.98;46.94;98562.19;4950283;28;115455;-77
2023/09/11 07:40:27;;;;;;;;;;;25.40;81.30;;;26.02;46.27;98562.13;4925388;28;123607;-77
2023/09/11 07:42:54;;;;;;;;;;;25.50;81.40;;;26.06;46.83;98559.25;4933303;28;123081;-78
2023/09/11 07:45:21;;;;;;;;;;;25.50;81.50;;;26.12;46.70;98560.41;4918314;28;113577;-76
2023/09/11 07:47:51;;;;;;;;;;;25.50;81.40;;;26.18;46.49;98561.53;4950131;28;112774;-79
2023/09/11 07:50:17;;;;;;;;;;;25.60;81.40;;;26.27;46.90;98567.47;4935162;28;123553;-79
2023/09/11 07:52:43;;;;;;;;;;;25.70;81.50;;;26.34;46.56;98550.41;4934694;28;123224;-77
2023/09/11 07:55:15;;;;;;;;;;;25.70;81.40;;;26.38;46.51;98550.34;4949574;28;114409;-77
2023/09/11 07:57:44;;;;;;;;;;;25.80;81.20;;;26.41;45.95;98552.31;4920911;28;112746;-78
2023/09/11 08:00:19;;;;;;;;;;;25.80;81.20;;;26.43;46.34;98555.53;4926932;28;123195;-77
2023/09/11 08:02:48;;;;;;;;;;;25.90;81.30;;;26.51;46.14;98556.25;4942506;28;124057;-76
2023/09/11 08:05:14;;;;;;;;;;;25.90;81.20;;;26.61;46.30;98561.78;4933190;28;114043;-76
2023/09/11 08:07:41;;;;;;;;;;;26.00;81.20;;;26.73;46.35;98557.56;4960715;28;113503;-76
2023/09/11 08:10:07;;;;;;;;;;;26.10;81.20;;;26.83;46.16;98556.59;4946303;28;124111;-76
2023/09/11 08:12:34;;;;;;;;;;;26.20;81.00;;;26.94;45.68;98556.44;4947038;28;124607;-76
2023/09/11 08:15:03;;;;;;;;;;;26.30;80.90;;;26.98;45.73;98556.41;4936353;28;114560;-76
2023/09/11 08:17:29;;;;;;;;;;;26.40;80.80;;;26.98;45.67;98562.06;4955985;28;113551;-77
2023/09/11 08:19:55;;;;;;;;;;;26.40;80.30;;;26.97;45.36;98560.44;4957529;28;124048;-77
2023/09/11 08:22:22;;;;;;;;;;;26.50;79.90;;;27.00;45.19;98563.25;4948412;28;124054;-77
2023/09/11 08:24:50;;;;;;;;;;;26.50;80.00;;;27.04;45.51;98554.69;4961873;28;115079;-83
2023/09/11 08:27:17;;;;;;;;;;;26.60;79.80;;;27.09;45.20;98559.88;4931056;28;114499;-78
2023/09/11 08:29:43;;;;;;;;;;;26.60;79.90;;;27.13;45.50;98563.44;4963193;28;124200;-78
2023/09/11 08:32:09;;;;;;;;;;;26.60;79.60;;;27.18;45.28;98560.13;4942922;28;124238;-79
2023/09/11 08:34:39;;;;;;;;;;;26.70;79.50;;;27.25;44.81;98562.84;4946715;28;114358;-76
2023/09/11 08:37:06;;;;;;;;;;;26.70;79.30;;;27.33;44.77;98559.91;4932783;28;114053;-80
2023/09/11 08:39:32;;;;;;;;;;;26.80;78.70;;;27.36;44.50;98559.03;4945193;28;124125;-77
2023/09/11 08:41:59;;;;;;;;;;;26.80;78.60;;;27.39;44.33;98564.66;4935566;28;124727;-76
2023/09/11 08:44:27;;;;;;;;;;;26.90;78.40;;;27.43;44.23;98558.91;4948475;28;114305;-76
2023/09/11 08:46:56;;;;;;;;;;;26.90;78.30;;;27.45;44.29;98562.91;4951891;28;114174;-78
2023/09/11 08:49:29;;;;;;;;;;;27.00;78.20;;;27.50;44.07;98558.78;4937477;28;124462;-77
2023/09/11 08:52:04;;;;;;;;;;;27.00;78.00;;;27.59;44.20;98559.00;4926235;28;124601;-78
2023/09/11 08:54:38;;;;;;;;;;;27.10;78.00;;;27.66;43.70;98556.03;4933221;28;114805;-78
2023/09/11 08:57:05;;;;;;;;;;;27.10;77.80;;;27.68;43.64;98553.59;4928169;28;113902;-77
2023/09/11 08:59:40;;;;;;;;;;;27.20;77.50;;;27.68;43.96;98553.59;4917469;28;124190;-75
2023/09/11 09:02:13;;;;;;;;;;;27.20;77.60;;;27.71;44.10;98547.03;4916032;28;125011;-76
2023/09/11 09:04:40;;;;;;;;;;;27.20;77.60;;;27.77;43.89;98555.84;4918925;28;114492;-77
2023/09/11 09:07:07;;;;;;;;;;;27.30;77.60;;;27.81;43.74;98550.94;4937309;28;113736;-77
2023/09/11 09:09:33;;;;;;;;;;;27.30;77.50;;;27.86;43.86;98549.63;4953911;28;124886;-77
2023/09/11 09:12:05;;;;;;;;;;;27.40;77.50;;;27.92;43.98;98557.22;4942369;28;122917;-77
2023/09/11 09:14:40;;;;;;;;;;;27.40;77.60;;;27.96;43.93;98552.25;4931534;28;114774;-78
2023/09/11 09:17:06;;;;;;;;;;;27.50;77.60;;;27.98;43.70;98544.09;4947337;28;114216;-78
2023/09/11 09:19:33;;;;;;;;;;;27.50;77.60;;;27.98;43.94;98548.97;4930797;28;124160;-79
2023/09/11 09:22:03;;;;;;;;;;;27.50;77.30;;;27.99;43.96;98547.72;4940176;28;124396;-77
2023/09/11 09:24:29;;;;;;;;;;;27.50;77.60;;;27.98;44.11;98538.41;4939302;28;113952;-77
2023/09/11 09:27:05;;;;;;;;;;;27.50;77.80;;;28.02;44.22;98537.53;4931227;28;114408;-77
2023/09/11 09:29:38;;;;;;;;;;;27.60;77.90;;;28.07;44.09;98537.81;4961771;28;123714;-78
2023/09/11 09:32:06;;;;;;;;;;;27.60;77.60;;;28.10;43.88;98534.13;4947566;28;124223;-77
2023/09/11 09:34:34;;;;;;;;;;;27.60;77.20;;;28.10;43.61;98534.13;4938040;28;114321;-78
2023/09/11 09:37:03;;;;;;;;;;;27.60;76.90;;;28.13;43.84;98538.09;4956782;28;113657;-77
2023/09/11 09:39:30;;;;;;;;;;;27.70;77.60;;;28.17;43.73;98533.97;4930229;28;124570;-78
2023/09/11 09:42:04;;;;;;;;;;;27.70;76.70;;;28.22;42.90;98523.34;4929461;28;124069;-77
2023/09/11 09:44:32;;;;;;;;;;;27.80;76.20;;;28.25;43.21;98533.81;4926188;28;113871;-78
2023/09/11 09:47:19;;;;;;;;;;;27.80;75.90;;;28.24;43.09;98532.19;4931944;28;113674;-77
2023/09/11 09:49:51;;;;;;;;;;;27.80;76.00;;;28.29;42.56;98531.69;4946169;28;124131;-78
2023/09/11 09:52:20;;;;;;;;;;;27.80;75.50;;;28.33;42.71;98529.59;4945069;28;124123;-76
2023/09/11 09:54:51;;;;;;;;;;;27.90;75.50;;;28.38;42.46;98523.38;4933850;28;113846;-76
2023/09/11 09:57:21;;;;;;;;;;;27.90;75.00;;;28.41;42.04;98520.47;4927259;28;114064;-78
2023/09/11 09:59:56;;;;;;;;;;;28.00;74.50;;;28.47;41.76;98517.91;4919485;28;124240;-75
2023/09/11 10:02:31;;;;;;;;;;;28.00;74.30;;;28.53;42.10;98515.34;4926544;28;123355;-76
2023/09/11 10:05:03;;;;;;;;;;;28.10;74.30;;;28.60;41.82;98509.50;4948999;28;114889;-77
2023/09/11 10:07:45;;;;;;;;;;;28.10;74.10;;;28.63;41.60;98509.41;4930172;28;114810;-77
2023/09/11 10:10:22;;;;;;;;;;;28.20;73.70;;;28.70;41.27;98504.81;4939817;28;124354;-77
2023/09/11 10:12:53;;;;;;;;;;;28.20;73.20;;;28.75;41.06;98496.56;4958276;28;124160;-77
2023/09/11 10:15:21;;;;;;;;;;;28.30;72.80;;;28.81;41.01;98491.16;4951341;28;113718;-77
2023/09/11 10:17:53;;;;;;;;;;;28.40;72.80;;;28.88;41.00;98496.63;4927165;28;113956;-77
2023/09/11 10:20:20;;;;;;;;;;;28.40;72.60;;;28.93;40.50;98487.56;4928615;28;124259;-78
2023/09/11 10:22:46;;;;;;;;;;;28.50;72.20;;;28.98;40.17;98489.09;4914747;28;123466;-78
2023/09/11 10:25:12;;;;;;;;;;;28.40;71.70;;;29.03;40.15;98482.88;4926205;28;113523;-77
2023/09/11 10:27:39;;;;;;;;;;;28.50;71.50;;;29.09;39.71;98480.31;4931494;28;113146;-77
2023/09/11 10:30:10;;;;;;;;;;;28.60;70.70;;;29.13;39.71;98478.19;4915180;28;123635;-77
2023/09/11 10:32:59;;;;;;;;;;;28.60;70.30;;;29.12;39.25;98476.56;4929476;28;124010;-79
2023/09/11 10:35:27;;;;;;;;;;;28.70;69.60;;;29.20;39.44;98469.47;4945927;28;114572;-79
2023/09/11 10:38:00;;;;;;;;;;;28.70;69.50;;;29.26;39.21;98465.63;4907389;28;113490;-78
2023/09/11 10:40:33;;;;;;;;;;;28.80;69.00;;;29.34;38.50;98469.09;4920646;28;124626;-78
2023/09/11 10:42:59;;;;;;;;;;;28.90;68.60;;;29.37;37.97;98464.56;4922806;28;123864;-78
2023/09/11 10:45:36;;;;;;;;;;;28.90;68.00;;;29.43;38.25;98469.25;4945452;28;113410;-78
2023/09/11 10:48:03;;;;;;;;;;;28.90;67.50;;;29.52;38.21;98466.53;4926932;28;113945;-78
2023/09/11 10:50:46;;;;;;;;;;;29.00;67.60;;;29.62;38.08;98456.09;4944827;28;124415;-75
2023/09/11 10:53:12;;;;;;;;;;;29.10;67.10;;;29.71;36.96;98458.31;4929442;28;123969;-76
2023/09/11 10:55:38;;;;;;;;;;;29.20;66.60;;;29.83;37.08;98457.56;4920447;28;115638;-76
2023/09/11 10:58:05;;;;;;;;;;;29.20;66.50;;;29.93;36.63;98456.47;4931944;28;115191;-76
2023/09/11 11:00:38;;;;;;;;;;;29.30;65.70;;;30.06;36.87;98447.13;4932417;28;124319;-77
2023/09/11 11:03:05;;;;;;;;;;;29.50;65.80;;;30.18;36.70;98446.34;4958608;28;124128;-77
2023/09/11 11:05:34;;;;;;;;;;;29.60;65.80;;;30.29;36.43;98446.06;4951347;28;114529;-76
2023/09/11 11:08:01;;;;;;;;;;;29.70;65.40;;;30.41;36.65;98444.44;4945477;28;114576;-76
2023/09/11 11:10:29;;;;;;;;;;;29.80;65.20;;;30.49;36.23;98440.13;4923154;28;124893;-76
2023/09/11 11:13:12;;;;;;;;;;;29.90;64.90;;;30.56;35.89;98434.97;4963105;28;123446;-77
2023/09/11 11:15:38;;;;;;;;;;;30.00;64.40;;;30.66;35.56;98438.75;4940677;28;114223;-78
2023/09/11 11:18:27;;;;;;;;;;;30.10;64.00;;;30.75;35.59;98430.28;4935495;28;113671;-78
2023/09/11 11:21:04;;;;;;;;;;;30.20;63.70;;;30.80;35.04;98429.75;4933026;28;124458;-78